Airport View

Enter AWOS ICAO identifier for current METAR.

ex. KFNL

KVWU 210036Z AUTO 10009KT 10SM 23/20 A2987 RMK AO2

21 Sep 2019 00:59

Frequency: 124.175

Phone: 218-647-8415

Other Area AWOS: KBDE - KFOZ - KBJI - KINL

TAF KBJI 202347Z 2100/2124 14015KT P6SM SCT028 BKN100 FM210300 15015KT P6SM VCTS SCT025CB BKN080 FM210700 16015KT P6SM TSRA BKN035CB TEMPO 2107/2110 4SM TSRA BR OVC025CB FM211200 18014KT 6SM SHRA VCTS OVC013CB FM211700 19013G21KT P6SM VCSH BKN009 FM212200 21014KT P6SM SCT045